Time;durP1;ratioP1;P1;durP2;ratioP2;P2;SDS_P1;SDS_P2;PMS_P1;PMS_P2;Temp;Humidity;BMP_temperature;BMP_pressure;BME280_temperature;BME280_humidity;BME280_pressure;Samples;Min_cycle;Max_cycle;Signal;HPM_P1;HPM_P2
2022/05/20 00:01:57;;;;;;;1.85;0.80;;;19.40;44.30;;;;;;5074375;28;20056;-76
2022/05/20 00:04:23;;;;;;;0.82;0.63;;;19.40;44.50;;;;;;5074748;28;20028;-76
2022/05/20 00:06:49;;;;;;;0.60;0.60;;;19.30;44.50;;;;;;5074640;28;20029;-76
2022/05/20 00:09:33;;;;;;;0.82;0.60;;;19.40;44.60;;;;;;5070838;28;20350;-76
2022/05/20 00:11:58;;;;;;;2.55;0.70;;;19.30;44.60;;;;;;5074013;28;20063;-76
2022/05/20 00:14:24;;;;;;;0.70;0.60;;;19.30;44.80;;;;;;5056879;28;20158;-76
2022/05/20 00:16:50;;;;;;;2.60;0.93;;;19.30;45.00;;;;;;5074487;28;20083;-76
2022/05/20 00:19:15;;;;;;;0.95;0.60;;;19.30;45.00;;;;;;5073746;28;20032;-76
2022/05/20 00:21:41;;;;;;;1.00;0.85;;;19.40;44.90;;;;;;5074776;28;20043;-76
2022/05/20 00:24:07;;;;;;;1.38;0.60;;;19.30;44.90;;;;;;5074040;28;20098;-76
2022/05/20 00:26:33;;;;;;;1.30;0.85;;;19.30;45.20;;;;;;5074688;28;20411;-75
2022/05/20 00:28:59;;;;;;;1.40;0.88;;;19.30;45.50;;;;;;5073909;28;20103;-76
2022/05/20 00:31:26;;;;;;;0.88;0.60;;;19.20;45.80;;;;;;5074538;28;20051;-75
2022/05/20 00:33:52;;;;;;;1.63;1.15;;;19.20;46.00;;;;;;5074552;28;20029;-77
2022/05/20 00:36:18;;;;;;;0.70;0.68;;;19.10;46.20;;;;;;5073871;28;20172;-74
2022/05/20 00:38:44;;;;;;;2.40;0.75;;;19.20;46.50;;;;;;5074144;28;20017;-75
2022/05/20 00:41:10;;;;;;;1.10;0.90;;;19.10;46.60;;;;;;5073348;28;20040;-77
2022/05/20 00:43:39;;;;;;;2.05;0.88;;;19.10;46.80;;;;;;5074283;28;20020;-76
2022/05/20 00:46:12;;;;;;;1.15;0.70;;;19.10;46.80;;;;;;5073575;28;20374;-74
2022/05/20 00:48:38;;;;;;;0.90;0.88;;;19.00;46.90;;;;;;5074281;28;20137;-75
2022/05/20 00:51:33;;;;;;;1.70;1.08;;;19.00;47.20;;;;;;5073540;28;20029;-76
2022/05/20 00:54:05;;;;;;;2.30;1.10;;;19.00;47.40;;;;;;5042165;28;20048;-75
2022/05/20 00:56:45;;;;;;;2.40;1.20;;;19.00;48.00;;;;;;5074031;28;20068;-75
2022/05/20 00:59:17;;;;;;;2.38;0.82;;;18.90;48.80;;;;;;5073365;28;20025;-75
2022/05/20 01:01:44;;;;;;;2.00;0.77;;;18.90;49.00;;;;;;5073898;28;20080;-75
2022/05/20 01:04:10;;;;;;;0.65;0.57;;;18.90;49.00;;;;;;5073147;28;20420;-74
2022/05/20 01:06:35;;;;;;;2.35;1.50;;;18.80;49.20;;;;;;5073688;28;20033;-75
2022/05/20 01:09:01;;;;;;;1.63;0.77;;;18.80;49.50;;;;;;5073003;28;20158;-75
2022/05/20 01:11:27;;;;;;;3.78;0.93;;;18.80;49.60;;;;;;5073685;28;20024;-76
2022/05/20 01:13:53;;;;;;;1.15;0.80;;;18.80;50.10;;;;;;5055504;28;20469;-77
2022/05/20 01:16:19;;;;;;;2.03;0.73;;;18.70;50.30;;;;;;5072820;28;20029;-75
2022/05/20 01:18:46;;;;;;;2.10;0.65;;;18.70;50.60;;;;;;5073381;28;20063;-75
2022/05/20 01:21:13;;;;;;;1.80;0.70;;;18.70;51.20;;;;;;5073195;28;20032;-75
2022/05/20 01:23:39;;;;;;;1.55;0.95;;;18.70;51.60;;;;;;5073410;28;20033;-76
2022/05/20 01:26:06;;;;;;;1.88;0.80;;;18.70;51.70;;;;;;5072857;28;20028;-76
2022/05/20 01:28:33;;;;;;;1.10;0.70;;;18.60;52.10;;;;;;5073319;28;20025;-76
2022/05/20 01:31:09;;;;;;;1.27;0.90;;;18.60;52.10;;;;;;5073479;28;20083;-76
2022/05/20 01:33:40;;;;;;;1.73;1.10;;;18.60;52.00;;;;;;5073392;28;20056;-75
2022/05/20 01:36:09;;;;;;;1.70;0.70;;;18.50;51.90;;;;;;5072449;28;20489;-75
2022/05/20 01:38:35;;;;;;;0.80;0.80;;;18.40;52.00;;;;;;5070189;28;20048;-75
2022/05/20 01:41:07;;;;;;;2.17;0.95;;;18.30;52.30;;;;;;5070470;28;20037;-76
2022/05/20 01:43:56;;;;;;;1.38;0.85;;;18.30;52.50;;;;;;5066149;28;20028;-75
2022/05/20 01:46:38;;;;;;;2.30;0.75;;;18.20;52.30;;;;;;5029994;28;20080;-75
2022/05/20 01:49:16;;;;;;;2.05;0.70;;;18.20;52.60;;;;;;5065026;28;20024;-77
2022/05/20 01:51:56;;;;;;;1.30;0.90;;;18.20;52.40;;;;;;5067328;28;20036;-76
2022/05/20 01:54:40;;;;;;;1.58;0.88;;;18.20;52.90;;;;;;5067067;28;20221;-77
2022/05/20 01:57:23;;;;;;;3.17;0.90;;;18.20;52.80;;;;;;5065486;28;20100;-75
2022/05/20 01:59:53;;;;;;;2.08;0.90;;;18.20;52.70;;;;;;5064402;28;20045;-75
2022/05/20 02:02:28;;;;;;;4.50;1.00;;;18.30;52.50;;;;;;5062410;28;20070;-76
2022/05/20 02:05:01;;;;;;;2.08;0.90;;;18.30;52.40;;;;;;5065651;28;20029;-76
2022/05/20 02:07:32;;;;;;;1.67;0.90;;;18.30;52.40;;;;;;5072099;28;20035;-75
2022/05/20 02:10:11;;;;;;;1.30;0.60;;;18.40;52.30;;;;;;5072729;28;20103;-75
2022/05/20 02:12:46;;;;;;;0.43;0.43;;;18.40;52.60;;;;;;5072768;28;20342;-75
2022/05/20 02:15:41;;;;;;;0.70;0.70;;;18.30;52.00;;;;;;5071815;28;20029;-77
2022/05/20 02:18:11;;;;;;;1.00;0.73;;;18.40;52.20;;;;;;5064639;28;20029;-78
2022/05/20 02:20:42;;;;;;;1.08;0.90;;;18.30;52.60;;;;;;5062467;28;20353;-77
2022/05/20 02:23:19;;;;;;;2.05;0.95;;;18.30;52.70;;;;;;5059565;28;20051;-77
2022/05/20 02:25:54;;;;;;;2.13;1.10;;;18.30;53.20;;;;;;5062705;28;20469;-76
2022/05/20 02:28:36;;;;;;;1.73;1.10;;;18.30;53.90;;;;;;5062324;28;20454;-75
2022/05/20 02:31:04;;;;;;;0.90;0.80;;;18.30;54.30;;;;;;5064188;28;20377;-76
2022/05/20 02:33:31;;;;;;;2.50;0.93;;;18.20;54.30;;;;;;5052922;28;20033;-77
2022/05/20 02:36:05;;;;;;;2.10;0.90;;;18.20;54.50;;;;;;5051935;28;20029;-77
2022/05/20 02:38:31;;;;;;;1.33;0.95;;;18.20;54.80;;;;;;5052473;28;20037;-76
2022/05/20 02:40:56;;;;;;;1.00;0.90;;;18.20;54.60;;;;;;5052382;28;20400;-76
2022/05/20 02:43:22;;;;;;;1.00;0.80;;;18.20;54.70;;;;;;5051654;28;20028;-76
2022/05/20 02:45:50;;;;;;;1.15;1.00;;;18.20;54.50;;;;;;5051799;28;20437;-77
2022/05/20 02:48:18;;;;;;;1.92;1.00;;;18.20;54.40;;;;;;5051639;28;20070;-77
2022/05/20 02:50:44;;;;;;;1.17;0.80;;;18.30;54.10;;;;;;5052094;28;20025;-76
2022/05/20 02:53:10;;;;;;;4.20;0.80;;;18.30;54.00;;;;;;5051176;28;20028;-76
2022/05/20 02:55:36;;;;;;;0.98;0.80;;;18.40;53.80;;;;;;5052103;28;20104;-75
2022/05/20 02:58:02;;;;;;;1.20;0.82;;;18.30;53.70;;;;;;5052019;28;20045;-75
2022/05/20 03:05:57;;;;;;;1.10;1.00;;;18.20;53.20;;;;;;5051899;28;20415;-76
2022/05/20 03:08:23;;;;;;;2.03;0.68;;;18.20;53.40;;;;;;5050999;28;20021;-75
2022/05/20 03:10:49;;;;;;;2.88;0.75;;;18.20;53.60;;;;;;5051797;28;20032;-77
2022/05/20 03:13:16;;;;;;;0.80;0.68;;;18.20;53.70;;;;;;5050824;28;20375;-77
2022/05/20 03:16:01;;;;;;;0.77;0.73;;;18.20;53.60;;;;;;5051886;28;20036;-77
2022/05/20 03:18:26;;;;;;;1.88;1.00;;;18.20;53.40;;;;;;5050977;28;20127;-77
2022/05/20 03:20:52;;;;;;;0.65;0.65;;;18.10;53.00;;;;;;5051756;28;20032;-76
2022/05/20 03:23:17;;;;;;;0.80;0.77;;;18.10;53.60;;;;;;5051016;28;20032;-77
2022/05/20 03:25:43;;;;;;;0.70;0.70;;;18.10;53.40;;;;;;5051821;28;20025;-77
2022/05/20 03:28:09;;;;;;;1.35;0.80;;;18.10;53.60;;;;;;5051630;28;20025;-78
2022/05/20 03:30:53;;;;;;;0.77;0.73;;;18.10;53.30;;;;;;5051778;28;20411;-77
2022/05/20 03:33:19;;;;;;;0.95;0.80;;;18.00;53.20;;;;;;5055616;28;20061;-77
2022/05/20 03:35:44;;;;;;;2.83;0.70;;;18.00;53.20;;;;;;5075477;28;20492;-77
2022/05/20 03:38:11;;;;;;;0.82;0.73;;;18.10;53.10;;;;;;5095411;28;20024;-77
2022/05/20 03:40:36;;;;;;;2.92;1.10;;;18.00;53.10;;;;;;5095968;28;20033;-77
2022/05/20 03:43:03;;;;;;;0.93;0.77;;;18.00;53.40;;;;;;5096149;28;20082;-77
2022/05/20 03:45:29;;;;;;;1.60;0.85;;;18.00;53.50;;;;;;5095277;28;20372;-76
2022/05/20 03:47:55;;;;;;;2.45;0.73;;;18.00;53.60;;;;;;5095505;28;20031;-76
2022/05/20 03:50:20;;;;;;;1.55;0.80;;;18.00;53.10;;;;;;5094923;28;20108;-76
2022/05/20 03:52:46;;;;;;;1.88;0.80;;;18.00;53.30;;;;;;5086199;28;20554;-76
2022/05/20 03:55:11;;;;;;;2.45;0.90;;;17.90;53.40;;;;;;5054580;28;20067;-77
2022/05/20 03:57:37;;;;;;;1.42;1.20;;;17.90;53.30;;;;;;5054816;28;20048;-77
2022/05/20 04:00:03;;;;;;;1.63;1.02;;;17.90;52.80;;;;;;5054783;28;20029;-76
2022/05/20 04:02:29;;;;;;;0.93;0.80;;;17.90;52.90;;;;;;5054397;28;20080;-76
2022/05/20 04:04:56;;;;;;;1.75;0.95;;;18.00;53.20;;;;;;5055258;28;20382;-76
2022/05/20 04:07:24;;;;;;;1.27;0.80;;;18.00;53.30;;;;;;5054301;28;20051;-75
2022/05/20 04:09:50;;;;;;;1.10;0.82;;;18.00;53.50;;;;;;5054746;28;20029;-77
2022/05/20 04:12:24;;;;;;;0.90;0.82;;;18.10;53.30;;;;;;5054532;28;20039;-77
2022/05/20 04:14:51;;;;;;;1.83;1.00;;;18.20;53.10;;;;;;5054736;28;20461;-76
2022/05/20 04:17:17;;;;;;;1.05;0.73;;;18.20;52.90;;;;;;5036258;28;20409;-77
2022/05/20 04:19:43;;;;;;;1.20;0.90;;;18.30;52.80;;;;;;5054559;28;20033;-78
2022/05/20 04:22:11;;;;;;;2.20;1.00;;;18.40;52.80;;;;;;5054666;28;20033;-77
2022/05/20 04:24:37;;;;;;;2.13;0.90;;;18.50;52.70;;;;;;5053966;28;20029;-77
2022/05/20 04:27:03;;;;;;;1.67;0.85;;;18.50;52.30;;;;;;5054775;28;20025;-77
2022/05/20 04:29:29;;;;;;;1.42;0.70;;;18.60;52.60;;;;;;5054299;28;20475;-76
2022/05/20 04:31:54;;;;;;;2.22;1.20;;;18.60;52.70;;;;;;5054669;28;20063;-76
2022/05/20 04:34:20;;;;;;;1.30;0.90;;;18.70;52.60;;;;;;5054437;28;20029;-77
2022/05/20 04:36:46;;;;;;;1.30;1.02;;;18.90;52.20;;;;;;5054505;28;20024;-77
2022/05/20 04:39:12;;;;;;;1.50;0.88;;;18.90;52.00;;;;;;5054659;28;20111;-77
2022/05/20 04:47:14;;;;;;;1.92;0.93;;;19.30;51.20;;;;;;5054371;28;20116;-76
2022/05/20 04:49:42;;;;;;;1.98;0.90;;;19.40;50.90;;;;;;5054226;28;20112;-77
2022/05/20 04:52:07;;;;;;;1.92;1.00;;;19.60;50.50;;;;;;5054473;28;20032;-76
2022/05/20 04:54:51;;;;;;;1.35;1.00;;;19.60;50.20;;;;;;5053709;28;20033;-75
2022/05/20 04:57:25;;;;;;;1.48;1.17;;;19.80;49.90;;;;;;5053594;28;20029;-77
2022/05/20 04:59:52;;;;;;;2.08;0.95;;;20.00;49.40;;;;;;5054123;28;20043;-76
2022/05/20 05:02:18;;;;;;;1.92;1.15;;;20.10;48.70;;;;;;5053102;28;20052;-77
2022/05/20 05:04:44;;;;;;;3.35;1.00;;;20.30;48.40;;;;;;5059557;28;20029;-75
2022/05/20 05:07:11;;;;;;;1.30;0.80;;;20.30;48.10;;;;;;5064609;28;20029;-75
2022/05/20 05:09:42;;;;;;;1.55;1.15;;;20.30;47.80;;;;;;5060805;28;20108;-76
2022/05/20 05:12:09;;;;;;;3.40;1.13;;;20.30;48.20;;;;;;5064436;28;20096;-75
2022/05/20 05:14:43;;;;;;;1.20;0.98;;;20.20;48.40;;;;;;5063913;28;20029;-76
2022/05/20 05:17:12;;;;;;;2.08;1.00;;;20.20;48.80;;;;;;5067981;28;20032;-77
2022/05/20 05:19:40;;;;;;;1.60;1.02;;;20.10;49.20;;;;;;5072850;28;20036;-77
2022/05/20 05:22:07;;;;;;;2.03;1.20;;;20.10;49.40;;;;;;5073562;28;20029;-76
2022/05/20 05:24:34;;;;;;;1.55;1.10;;;20.10;49.30;;;;;;5072828;28;20091;-76
2022/05/20 05:27:00;;;;;;;0.80;0.80;;;20.10;49.50;;;;;;5073245;28;20031;-76
2022/05/20 05:29:26;;;;;;;3.90;1.20;;;20.00;49.30;;;;;;5075197;28;20100;-77
2022/05/20 05:31:52;;;;;;;1.60;1.02;;;20.00;49.40;;;;;;5073206;28;20028;-77
2022/05/20 05:34:18;;;;;;;1.98;1.45;;;20.10;49.50;;;;;;5072417;28;20040;-78
2022/05/20 05:36:43;;;;;;;1.98;1.45;;;21.00;52.30;;;;;;5073070;28;20029;-77
2022/05/20 05:39:10;;;;;;;2.03;1.10;;;22.80;46.50;;;;;;5073089;28;20096;-78
2022/05/20 05:41:36;;;;;;;2.38;1.00;;;24.30;43.20;;;;;;5072741;28;20094;-77
2022/05/20 05:44:03;;;;;;;5.57;1.10;;;25.80;40.40;;;;;;5073271;28;20024;-76
2022/05/20 05:46:30;;;;;;;2.53;1.17;;;27.00;38.40;;;;;;5072372;28;20025;-77
2022/05/20 05:48:57;;;;;;;1.38;0.98;;;28.00;37.00;;;;;;5072788;28;20036;-77
2022/05/20 05:51:23;;;;;;;2.03;1.30;;;29.10;35.00;;;;;;5072029;28;20024;-77
2022/05/20 05:53:49;;;;;;;1.95;1.40;;;30.00;33.60;;;;;;5072402;28;20021;-77
2022/05/20 05:56:14;;;;;;;1.38;1.23;;;30.40;33.30;;;;;;5068694;28;20074;-78
2022/05/20 05:58:40;;;;;;;1.83;1.20;;;30.80;32.70;;;;;;5071767;28;20056;-76
2022/05/20 06:01:06;;;;;;;2.30;1.23;;;31.10;31.80;;;;;;5071867;28;20127;-77
2022/05/20 06:03:33;;;;;;;1.83;1.08;;;31.40;31.70;;;;;;5071646;28;20077;-76
2022/05/20 06:05:59;;;;;;;4.97;1.38;;;32.00;31.00;;;;;;5072485;28;20174;-74
2022/05/20 06:08:24;;;;;;;1.75;0.98;;;32.00;30.60;;;;;;5071864;28;20107;-77
2022/05/20 06:13:35;;;;;;;3.40;1.38;;;30.70;30.90;;;;;;5071954;28;20048;-76
2022/05/20 06:16:07;;;;;;;1.70;1.38;;;29.90;32.30;;;;;;5129775;27;20702;-76
2022/05/20 06:18:33;;;;;;;0.95;0.90;;;29.30;33.30;;;;;;5129325;28;20092;-76
2022/05/20 06:20:59;;;;;;;1.38;1.27;;;28.70;34.20;;;;;;5129783;28;20460;-77
2022/05/20 06:23:25;;;;;;;2.65;1.10;;;28.00;34.80;;;;;;5129165;28;20508;-77
2022/05/20 06:25:51;;;;;;;1.13;0.80;;;27.40;35.70;;;;;;5128597;28;20038;-76
2022/05/20 06:28:18;;;;;;;1.90;1.02;;;26.90;36.50;;;;;;5129629;28;20032;-78
2022/05/20 06:30:45;;;;;;;1.25;1.10;;;26.50;37.70;;;;;;5129376;28;20024;-77
2022/05/20 06:33:12;;;;;;;2.40;1.15;;;26.10;38.40;;;;;;5129753;28;20038;-77
2022/05/20 06:41:07;;;;;;;3.33;1.40;;;25.40;40.10;;;;;;5129787;28;20084;-76
2022/05/20 06:43:33;;;;;;;3.15;1.50;;;25.30;40.90;;;;;;5128926;28;20054;-75
2022/05/20 06:46:01;;;;;;;2.47;1.30;;;25.30;41.00;;;;;;5129522;28;20472;-75
2022/05/20 06:48:39;;;;;;;2.67;1.27;;;25.20;41.10;;;;;;5128882;28;20061;-79
2022/05/20 06:51:06;;;;;;;2.22;1.60;;;25.50;41.30;;;;;;5129701;28;20027;-77
2022/05/20 06:53:32;;;;;;;3.55;1.38;;;25.80;41.00;;;;;;5128533;28;20114;-78
2022/05/20 06:55:58;;;;;;;2.25;1.20;;;25.90;40.50;;;;;;5128696;28;20172;-77
2022/05/20 06:58:24;;;;;;;3.13;1.25;;;26.20;40.90;;;;;;5128795;28;20494;-78
2022/05/20 07:00:49;;;;;;;3.58;1.40;;;26.70;40.40;;;;;;5129075;28;20123;-77
2022/05/20 07:03:19;;;;;;;1.38;1.15;;;27.20;40.00;;;;;;5128827;28;20157;-77
2022/05/20 07:05:45;;;;;;;2.72;1.60;;;27.60;39.00;;;;;;5128329;28;20055;-76
2022/05/20 07:08:11;;;;;;;3.60;1.35;;;27.90;38.30;;;;;;5129199;28;20035;-77
2022/05/20 07:10:37;;;;;;;2.65;1.40;;;27.90;38.80;;;;;;5128602;28;20062;-77
2022/05/20 07:13:02;;;;;;;3.45;1.20;;;28.20;39.40;;;;;;5129004;28;20382;-78
2022/05/20 07:15:28;;;;;;;1.67;1.08;;;28.10;38.60;;;;;;5128010;28;20480;-79
2022/05/20 07:17:54;;;;;;;4.32;1.30;;;28.20;39.00;;;;;;5129105;28;20028;-78
2022/05/20 07:20:19;;;;;;;1.35;1.13;;;28.40;38.90;;;;;;5129230;28;20035;-78
2022/05/20 07:22:45;;;;;;;1.30;1.10;;;28.60;39.40;;;;;;5128579;28;20031;-78
2022/05/20 07:25:11;;;;;;;1.88;1.30;;;28.70;39.60;;;;;;5129149;28;20023;-78
2022/05/20 07:27:37;;;;;;;1.98;1.23;;;28.90;39.40;;;;;;5113837;28;20027;-79
2022/05/20 07:30:03;;;;;;;2.17;1.30;;;29.30;38.80;;;;;;5115478;28;20027;-79
2022/05/20 07:32:29;;;;;;;2.05;1.00;;;29.50;37.80;;;;;;5114427;28;20028;-79
2022/05/20 07:34:55;;;;;;;1.98;1.35;;;29.80;37.70;;;;;;5114764;28;20042;-78
2022/05/20 07:37:20;;;;;;;1.27;1.10;;;30.10;37.60;;;;;;5115194;28;20452;-78
2022/05/20 07:39:46;;;;;;;2.17;1.52;;;30.60;37.60;;;;;;5114361;28;20418;-77
2022/05/20 07:42:13;;;;;;;1.67;1.40;;;31.10;37.20;;;;;;5115030;28;20039;-78
2022/05/20 07:44:41;;;;;;;3.65;2.13;;;31.30;36.90;;;;;;5112954;28;20468;-78
2022/05/20 07:47:07;;;;;;;6.05;1.90;;;31.70;36.40;;;;;;5114642;28;20023;-78
2022/05/20 07:49:33;;;;;;;2.83;1.50;;;32.00;36.40;;;;;;5113839;28;20030;-79
2022/05/20 07:52:02;;;;;;;3.22;1.65;;;32.30;36.50;;;;;;5114926;28;20023;-79
2022/05/20 07:54:32;;;;;;;1.20;1.10;;;32.70;36.60;;;;;;5113776;28;20053;-80
2022/05/20 07:57:04;;;;;;;;;;;33.10;36.70;;;;;;5113921;28;20024;-78
2022/05/20 07:59:37;;;;;;;2.25;1.50;;;33.40;37.30;;;;;;5114409;28;19903;-79
2022/05/20 08:02:03;;;;;;;1.60;1.50;;;33.60;37.30;;;;;;5113838;28;20024;-78
2022/05/20 08:07:18;;;;;;;2.03;1.13;;;34.10;37.00;;;;;;5114627;28;20503;-79
2022/05/20 08:09:44;;;;;;;1.50;1.40;;;34.50;36.90;;;;;;5113736;28;20070;-78
2022/05/20 08:12:10;;;;;;;1.85;1.60;;;34.80;36.70;;;;;;5114307;28;20094;-80
2022/05/20 08:14:35;;;;;;;4.10;1.90;;;34.70;36.30;;;;;;5114173;28;20052;-79
2022/05/20 08:17:03;;;;;;;1.60;1.35;;;34.10;36.90;;;;;;5114880;28;20027;-78
2022/05/20 08:19:29;;;;;;;1.40;1.30;;;34.40;37.60;;;;;;5114675;28;20034;-81
2022/05/20 08:21:55;;;;;;;1.45;1.30;;;34.60;37.40;;;;;;5114597;28;20523;-78
2022/05/20 08:24:21;;;;;;;2.08;1.40;;;34.80;36.80;;;;;;5114403;28;20106;-78
2022/05/20 08:26:46;;;;;;;1.88;1.40;;;34.50;37.10;;;;;;5113695;28;20050;-78
2022/05/20 08:29:13;;;;;;;1.80;1.30;;;34.40;37.00;;;;;;5114238;28;20371;-78
2022/05/20 08:31:40;;;;;;;1.90;1.70;;;34.50;37.20;;;;;;5113610;28;20068;-77
2022/05/20 08:34:06;;;;;;;2.58;1.52;;;34.40;37.30;;;;;;5113900;28;20023;-78
2022/05/20 08:36:32;;;;;;;2.05;1.63;;;33.90;37.80;;;;;;5113549;28;20494;-79
2022/05/20 08:38:58;;;;;;;2.08;1.80;;;33.70;38.80;;;;;;5113118;28;20023;-78
2022/05/20 08:41:28;;;;;;;1.35;1.25;;;33.60;39.10;;;;;;5114213;28;20107;-78
2022/05/20 08:43:54;;;;;;;1.60;1.38;;;33.40;39.30;;;;;;5113484;28;20024;-78
2022/05/20 08:46:22;;;;;;;2.50;1.52;;;32.90;39.60;;;;;;5113893;28;20349;-78
2022/05/20 08:48:52;;;;;;;1.20;1.10;;;32.50;40.60;;;;;;5112866;28;20023;-78
2022/05/20 08:51:19;;;;;;;2.03;1.67;;;32.40;41.80;;;;;;5114003;28;20028;-78
2022/05/20 08:53:47;;;;;;;1.70;1.38;;;32.20;41.60;;;;;;5113261;28;20021;-78
2022/05/20 08:56:18;;;;;;;2.05;1.80;;;32.00;42.20;;;;;;5113359;28;20431;-78
2022/05/20 08:58:52;;;;;;;3.03;1.90;;;31.80;41.20;;;;;;5113136;28;20031;-79
2022/05/20 09:01:38;;;;;;;3.05;1.50;;;31.50;41.70;;;;;;5113199;28;20421;-77
2022/05/20 09:04:06;;;;;;;1.83;1.58;;;31.30;41.90;;;;;;5113484;27;20110;-77
2022/05/20 09:06:37;;;;;;;3.47;1.77;;;31.20;42.40;;;;;;5113335;28;20034;-80
2022/05/20 09:09:06;;;;;;;1.63;1.30;;;31.00;42.30;;;;;;5113864;28;20030;-79
2022/05/20 09:11:31;;;;;;;2.63;1.30;;;30.80;42.10;;;;;;5113292;28;20110;-78
2022/05/20 09:17:12;;;;;;;3.20;1.58;;;30.60;42.30;;;;;;5113821;28;20034;-78
2022/05/20 09:19:40;;;;;;;1.30;1.20;;;30.40;42.80;;;;;;5113004;28;20032;-79
2022/05/20 09:22:12;;;;;;;1.70;1.40;;;30.30;42.90;;;;;;5113176;28;20476;-78
2022/05/20 09:24:41;;;;;;;1.90;1.30;;;30.30;43.00;;;;;;5112979;28;20479;-78
2022/05/20 09:27:10;;;;;;;1.95;1.50;;;30.20;42.90;;;;;;5113380;28;20020;-78
2022/05/20 09:29:44;;;;;;;1.58;1.30;;;30.20;43.60;;;;;;5112625;28;20027;-78
2022/05/20 09:32:34;;;;;;;1.67;1.13;;;30.10;42.30;;;;;;5113434;28;20511;-79
2022/05/20 09:35:18;;;;;;;1.60;1.40;;;30.00;41.10;;;;;;5112564;27;20082;-79
2022/05/20 09:37:46;;;;;;;1.33;1.23;;;29.90;43.10;;;;;;5112294;28;20036;-78
2022/05/20 09:40:31;;;;;;;2.35;1.10;;;29.80;43.40;;;;;;5113273;28;20491;-78
2022/05/20 09:43:05;;;;;;;2.00;1.20;;;30.00;44.20;;;;;;5112208;28;20097;-78
2022/05/20 09:45:43;;;;;;;1.45;1.30;;;30.10;43.10;;;;;;5092891;28;20066;-78
2022/05/20 09:48:10;;;;;;;1.40;1.27;;;30.20;43.00;;;;;;5092798;28;20099;-78
2022/05/20 09:50:38;;;;;;;1.20;1.10;;;30.20;42.80;;;;;;5091742;28;20032;-78
2022/05/20 09:53:28;;;;;;;1.60;1.50;;;30.20;43.00;;;;;;5091932;28;20032;-78
2022/05/20 09:56:32;;;;;;;1.25;0.95;;;30.20;42.40;;;;;;5080507;28;20059;-77
2022/05/20 09:59:10;;;;;;;2.58;1.25;;;30.30;42.20;;;;;;5091991;28;20020;-78
2022/05/20 10:01:37;;;;;;;1.55;1.10;;;30.30;42.30;;;;;;5092354;28;20059;-82
2022/05/20 10:04:08;;;;;;;1.45;1.10;;;30.50;42.20;;;;;;5092495;28;20051;-79
2022/05/20 10:06:35;;;;;;;;;;;30.40;41.90;;;;;;5092934;28;20107;-78
2022/05/20 10:09:25;;;;;;;1.20;1.10;;;30.40;42.30;;;;;;5092416;28;20030;-77
2022/05/20 10:11:51;;;;;;;2.75;1.15;;;30.50;42.80;;;;;;5090552;28;20389;-77
2022/05/20 10:14:22;;;;;;;2.15;1.40;;;30.60;41.90;;;;;;5091725;28;20074;-77
2022/05/20 10:16:56;;;;;;;1.27;1.05;;;30.60;41.70;;;;;;5092299;28;20024;-77
2022/05/20 10:19:52;;;;;;;1.85;1.08;;;30.50;41.70;;;;;;5091887;28;20021;-77
2022/05/20 10:22:46;;;;;;;2.63;1.45;;;30.50;41.70;;;;;;5092382;28;20081;-77
2022/05/20 10:25:23;;;;;;;2.22;1.42;;;30.30;41.80;;;;;;5092157;28;20055;-76
2022/05/20 10:28:12;;;;;;;1.40;1.30;;;30.40;42.30;;;;;;5092937;28;20038;-77
2022/05/20 10:33:36;;;;;;;3.28;1.17;;;30.50;42.10;;;;;;5092369;28;20096;-76
2022/05/20 10:36:24;;;;;;;1.15;1.05;;;30.60;42.70;;;;;;5091359;28;20437;-77
2022/05/20 10:39:14;;;;;;;1.23;1.13;;;30.80;42.50;;;;;;5091235;28;20035;-76
2022/05/20 10:41:42;;;;;;;1.55;1.30;;;30.90;41.90;;;;;;5091441;28;20028;-79
2022/05/20 10:50:20;;;;;;;1.40;1.15;;;30.90;42.50;;;;;;5091927;28;20097;-78
2022/05/20 10:53:27;;;;;;;1.92;1.20;;;31.10;42.60;;;;;;5091569;28;20040;-78
2022/05/20 10:56:31;;;;;;;1.40;1.30;;;31.10;41.10;;;;;;5091315;28;20089;-77
2022/05/20 10:59:26;;;;;;;1.63;1.40;;;31.10;41.20;;;;;;5081783;28;20113;-78
2022/05/20 11:02:07;;;;;;;2.63;1.50;;;31.00;41.50;;;;;;5093247;28;20108;-78
2022/05/20 11:04:47;;;;;;;;;;;31.10;42.10;;;;;;5095713;28;20058;-78
2022/05/20 11:07:13;;;;;;;;;;;31.10;40.90;;;;;;5096211;28;19915;-78
2022/05/20 11:09:59;;;;;;;1.30;1.15;;;31.00;40.60;;;;;;5095409;28;20316;-78
2022/05/20 11:12:53;;;;;;;1.42;1.23;;;31.00;41.10;;;;;;5095697;28;20099;-78
2022/05/20 11:15:30;;;;;;;1.33;1.00;;;30.90;41.20;;;;;;5095540;28;20044;-78
2022/05/20 11:18:23;;;;;;;1.50;1.30;;;30.80;41.70;;;;;;5093617;28;20024;-78
2022/05/20 11:21:30;;;;;;;1.42;1.15;;;30.80;41.30;;;;;;5095509;28;20103;-78
2022/05/20 11:24:16;;;;;;;2.35;1.08;;;30.90;41.20;;;;;;5060264;28;20059;-77
2022/05/20 11:27:01;;;;;;;1.20;1.08;;;30.80;41.00;;;;;;5095182;28;20024;-80
2022/05/20 11:30:00;;;;;;;3.03;1.60;;;30.80;41.20;;;;;;5114646;28;20023;-77
2022/05/20 11:32:40;;;;;;;1.15;1.05;;;30.70;41.20;;;;;;5115574;28;20023;-78
2022/05/20 11:35:15;;;;;;;1.45;1.17;;;30.60;41.80;;;;;;5114546;28;20486;-78
2022/05/20 11:38:04;;;;;;;1.20;1.10;;;30.60;41.60;;;;;;5116158;28;20024;-79
2022/05/20 11:40:35;;;;;;;1.83;1.20;;;30.50;41.30;;;;;;5116464;28;20035;-77
2022/05/20 11:43:10;;;;;;;1.23;1.13;;;30.60;41.80;;;;;;5114675;28;20028;-77
2022/05/20 11:46:10;;;;;;;1.30;1.20;;;30.60;41.70;;;;;;5115300;28;20119;-76
2022/05/20 11:48:42;;;;;;;1.03;0.93;;;30.60;41.60;;;;;;5115359;28;20024;-77
2022/05/20 11:51:37;;;;;;;2.60;1.83;;;30.60;41.60;;;;;;5114291;28;20055;-78
2022/05/20 11:54:20;;;;;;;1.45;1.25;;;30.60;41.50;;;;;;5085161;28;20040;-77
2022/05/20 11:56:53;;;;;;;1.75;1.20;;;30.60;41.80;;;;;;5114281;28;20038;-77
2022/05/20 11:59:22;;;;;;;1.60;0.93;;;30.60;41.90;;;;;;5114594;28;20020;-76
2022/05/20 12:01:51;;;;;;;1.30;1.20;;;30.60;42.00;;;;;;5114158;28;20024;-77
2022/05/20 12:04:19;;;;;;;1.63;1.20;;;30.60;42.90;;;;;;5114451;28;20384;-78
2022/05/20 12:06:47;;;;;;;1.50;1.08;;;30.50;41.90;;;;;;5114024;28;20020;-81
2022/05/20 12:09:27;;;;;;;1.27;1.17;;;30.40;41.90;;;;;;5114836;28;20107;-77
2022/05/20 12:12:24;;;;;;;6.05;1.23;;;30.30;42.00;;;;;;5113738;28;20027;-78
2022/05/20 12:15:11;;;;;;;1.38;1.27;;;30.30;42.60;;;;;;5100743;28;20077;-77
2022/05/20 12:17:43;;;;;;;2.40;1.17;;;30.30;42.10;;;;;;5114068;28;20094;-77
2022/05/20 12:26:16;;;;;;;2.58;1.60;;;30.20;42.50;;;;;;5113525;28;20365;-78
2022/05/20 12:28:42;;;;;;;1.55;1.40;;;30.10;43.00;;;;;;5113789;28;20092;-77
2022/05/20 12:31:08;;;;;;;1.63;1.33;;;30.00;43.40;;;;;;5113339;28;20032;-78
2022/05/20 12:33:59;;;;;;;2.17;1.33;;;29.80;44.00;;;;;;5113894;28;20023;-77
2022/05/20 12:36:27;;;;;;;1.83;1.48;;;29.70;44.40;;;;;;5113954;28;20040;-78
2022/05/20 12:39:13;;;;;;;2.05;1.48;;;29.60;44.40;;;;;;5113312;28;20020;-77
2022/05/20 12:41:43;;;;;;;2.20;1.42;;;29.50;44.10;;;;;;5114022;28;20024;-77
2022/05/20 12:44:21;;;;;;;1.80;1.23;;;29.40;44.10;;;;;;5113548;28;20213;-78
2022/05/20 12:46:55;;;;;;;1.23;1.13;;;29.40;45.00;;;;;;5113809;28;20076;-77
2022/05/20 12:49:23;;;;;;;1.98;1.63;;;29.30;45.10;;;;;;5113712;28;20024;-78
2022/05/20 12:51:52;;;;;;;1.80;1.42;;;29.30;45.30;;;;;;5113290;28;20062;-78
2022/05/20 12:54:24;;;;;;;2.22;1.50;;;29.30;45.40;;;;;;5113447;28;20451;-77
2022/05/20 12:57:05;;;;;;;1.40;1.30;;;29.20;45.50;;;;;;5112896;28;20039;-79
2022/05/20 12:59:31;;;;;;;1.33;1.23;;;29.20;45.40;;;;;;5113329;28;20026;-78
2022/05/20 13:02:04;;;;;;;1.45;1.35;;;29.10;45.60;;;;;;5112767;28;20458;-78
2022/05/20 13:04:37;;;;;;;1.67;1.35;;;29.10;45.50;;;;;;5113655;28;20080;-77
2022/05/20 13:07:05;;;;;;;1.88;1.42;;;29.00;45.60;;;;;;5112630;28;20019;-78
2022/05/20 13:09:41;;;;;;;2.15;1.75;;;29.00;46.00;;;;;;5113304;28;20019;-77
2022/05/20 13:12:13;;;;;;;1.42;1.33;;;29.00;45.80;;;;;;5112270;27;20054;-76
2022/05/20 13:14:39;;;;;;;2.80;1.50;;;29.00;45.70;;;;;;5112877;28;20043;-76
2022/05/20 13:17:08;;;;;;;1.60;1.35;;;28.90;45.80;;;;;;5112185;28;20047;-76
2022/05/20 13:19:40;;;;;;;1.48;1.20;;;28.90;46.00;;;;;;5112748;28;20481;-77
2022/05/20 13:22:07;;;;;;;1.80;1.70;;;29.00;46.10;;;;;;5112413;28;20031;-77
2022/05/20 13:24:38;;;;;;;1.92;1.50;;;28.90;46.10;;;;;;5112011;28;20092;-76
2022/05/20 13:27:09;;;;;;;1.85;1.30;;;29.00;46.30;;;;;;5112164;28;20456;-76
2022/05/20 13:32:30;;;;;;;1.30;1.20;;;28.90;46.40;;;;;;5112674;28;20038;-77
2022/05/20 13:35:00;;;;;;;2.00;1.48;;;29.00;46.10;;;;;;5112105;28;20036;-76
2022/05/20 13:37:49;;;;;;;1.63;1.25;;;29.00;46.20;;;;;;5112849;28;20027;-76
2022/05/20 13:40:27;;;;;;;2.20;1.50;;;29.00;46.00;;;;;;5091335;28;20063;-77
2022/05/20 13:42:55;;;;;;;1.42;1.27;;;29.00;46.20;;;;;;5091706;28;20032;-77
2022/05/20 13:51:11;;;;;;;1.80;1.30;;;29.00;46.00;;;;;;5091706;28;20418;-78
2022/05/20 13:53:38;;;;;;;1.25;1.10;;;29.00;46.20;;;;;;5092310;28;20114;-77
2022/05/20 13:56:07;;;;;;;1.70;1.00;;;29.00;46.30;;;;;;5091430;28;20032;-77
2022/05/20 13:58:33;;;;;;;1.30;1.00;;;29.00;46.10;;;;;;5092045;28;20042;-77